sensor_id;sensor_type;location;lat;lon;timestamp;temperature;humidity
27492;DHT22;14927;51.210;6.838;2023-08-12T00:02:40;26.10;67.30
27492;DHT22;14927;51.210;6.838;2023-08-12T00:05:25;26.10;67.70
27492;DHT22;14927;51.210;6.838;2023-08-12T00:08:10;26.10;67.70
27492;DHT22;14927;51.210;6.838;2023-08-12T00:10:54;26.00;67.70
27492;DHT22;14927;51.210;6.838;2023-08-12T00:13:39;26.00;67.90
27492;DHT22;14927;51.210;6.838;2023-08-12T00:16:24;25.90;67.90
27492;DHT22;14927;51.210;6.838;2023-08-12T00:19:08;25.90;68.00
27492;DHT22;14927;51.210;6.838;2023-08-12T00:21:53;25.90;68.10
27492;DHT22;14927;51.210;6.838;2023-08-12T00:24:38;25.90;68.20
27492;DHT22;14927;51.210;6.838;2023-08-12T00:27:24;25.80;68.30
27492;DHT22;14927;51.210;6.838;2023-08-12T00:30:08;25.90;68.50
27492;DHT22;14927;51.210;6.838;2023-08-12T00:32:53;25.80;68.60
27492;DHT22;14927;51.210;6.838;2023-08-12T00:35:38;25.80;68.80
27492;DHT22;14927;51.210;6.838;2023-08-12T00:38:22;25.80;69.00
27492;DHT22;14927;51.210;6.838;2023-08-12T00:41:07;25.80;69.20
27492;DHT22;14927;51.210;6.838;2023-08-12T00:43:52;25.80;69.40
27492;DHT22;14927;51.210;6.838;2023-08-12T00:46:38;25.80;69.50
27492;DHT22;14927;51.210;6.838;2023-08-12T00:49:23;25.80;69.70
27492;DHT22;14927;51.210;6.838;2023-08-12T00:52:08;25.80;69.60
27492;DHT22;14927;51.210;6.838;2023-08-12T00:54:52;25.80;69.60
27492;DHT22;14927;51.210;6.838;2023-08-12T00:57:37;25.80;69.60
27492;DHT22;14927;51.210;6.838;2023-08-12T01:00:21;25.80;69.70
27492;DHT22;14927;51.210;6.838;2023-08-12T01:03:07;25.70;69.60
27492;DHT22;14927;51.210;6.838;2023-08-12T01:05:53;25.70;69.70
27492;DHT22;14927;51.210;6.838;2023-08-12T01:08:38;25.70;69.80
27492;DHT22;14927;51.210;6.838;2023-08-12T01:11:49;25.70;69.70
27492;DHT22;14927;51.210;6.838;2023-08-12T01:15:15;25.70;70.00
27492;DHT22;14927;51.210;6.838;2023-08-12T01:18:02;25.70;70.50
27492;DHT22;14927;51.210;6.838;2023-08-12T01:20:47;25.60;69.50
27492;DHT22;14927;51.210;6.838;2023-08-12T01:23:32;25.70;69.60
27492;DHT22;14927;51.210;6.838;2023-08-12T01:26:16;25.60;69.70
27492;DHT22;14927;51.210;6.838;2023-08-12T01:29:01;25.60;69.90
27492;DHT22;14927;51.210;6.838;2023-08-12T01:32:07;25.60;69.90
27492;DHT22;14927;51.210;6.838;2023-08-12T01:35:46;25.60;70.30
27492;DHT22;14927;51.210;6.838;2023-08-12T01:38:34;25.60;70.90
27492;DHT22;14927;51.210;6.838;2023-08-12T01:41:23;25.60;70.00
27492;DHT22;14927;51.210;6.838;2023-08-12T01:44:07;25.50;70.30
27492;DHT22;14927;51.210;6.838;2023-08-12T01:46:52;25.50;70.20
27492;DHT22;14927;51.210;6.838;2023-08-12T01:49:38;25.50;70.40
27492;DHT22;14927;51.210;6.838;2023-08-12T01:52:22;25.50;70.50
27492;DHT22;14927;51.210;6.838;2023-08-12T01:55:07;25.50;70.50
27492;DHT22;14927;51.210;6.838;2023-08-12T01:57:52;25.50;70.50
27492;DHT22;14927;51.210;6.838;2023-08-12T02:00:37;25.50;70.60
27492;DHT22;14927;51.210;6.838;2023-08-12T02:03:21;25.40;70.50
27492;DHT22;14927;51.210;6.838;2023-08-12T02:06:06;25.40;70.60
27492;DHT22;14927;51.210;6.838;2023-08-12T02:08:53;25.40;70.70
27492;DHT22;14927;51.210;6.838;2023-08-12T02:11:38;25.40;70.80
27492;DHT22;14927;51.210;6.838;2023-08-12T02:14:23;25.40;70.80
27492;DHT22;14927;51.210;6.838;2023-08-12T02:17:08;25.40;70.80
27492;DHT22;14927;51.210;6.838;2023-08-12T02:19:53;25.40;70.90
27492;DHT22;14927;51.210;6.838;2023-08-12T02:22:37;25.40;70.90
27492;DHT22;14927;51.210;6.838;2023-08-12T02:25:22;25.40;71.10
27492;DHT22;14927;51.210;6.838;2023-08-12T02:28:06;25.30;71.00
27492;DHT22;14927;51.210;6.838;2023-08-12T02:30:51;25.30;71.00
27492;DHT22;14927;51.210;6.838;2023-08-12T02:33:36;25.30;70.90
27492;DHT22;14927;51.210;6.838;2023-08-12T02:36:20;25.30;71.00
27492;DHT22;14927;51.210;6.838;2023-08-12T02:39:05;25.30;71.10
27492;DHT22;14927;51.210;6.838;2023-08-12T02:41:49;25.30;71.10
27492;DHT22;14927;51.210;6.838;2023-08-12T02:44:34;25.30;71.10
27492;DHT22;14927;51.210;6.838;2023-08-12T02:47:19;25.30;71.20
27492;DHT22;14927;51.210;6.838;2023-08-12T02:50:04;25.30;71.30
27492;DHT22;14927;51.210;6.838;2023-08-12T02:52:49;25.30;71.50
27492;DHT22;14927;51.210;6.838;2023-08-12T02:55:34;25.30;72.30
27492;DHT22;14927;51.210;6.838;2023-08-12T02:58:18;25.30;71.40
27492;DHT22;14927;51.210;6.838;2023-08-12T03:01:03;25.20;71.40
27492;DHT22;14927;51.210;6.838;2023-08-12T03:03:51;25.20;71.30
27492;DHT22;14927;51.210;6.838;2023-08-12T03:06:35;25.20;71.20
27492;DHT22;14927;51.210;6.838;2023-08-12T03:09:20;25.20;71.10
27492;DHT22;14927;51.210;6.838;2023-08-12T03:12:05;25.20;71.10
27492;DHT22;14927;51.210;6.838;2023-08-12T03:14:50;25.00;71.00
27492;DHT22;14927;51.210;6.838;2023-08-12T03:17:34;25.20;71.90
27492;DHT22;14927;51.210;6.838;2023-08-12T03:20:19;25.20;71.20
27492;DHT22;14927;51.210;6.838;2023-08-12T03:23:04;25.20;71.20
27492;DHT22;14927;51.210;6.838;2023-08-12T03:25:49;25.20;71.10
27492;DHT22;14927;51.210;6.838;2023-08-12T03:28:33;25.10;71.20
27492;DHT22;14927;51.210;6.838;2023-08-12T03:31:18;25.10;71.20
27492;DHT22;14927;51.210;6.838;2023-08-12T03:34:02;25.10;71.30
27492;DHT22;14927;51.210;6.838;2023-08-12T03:36:47;25.10;71.40
27492;DHT22;14927;51.210;6.838;2023-08-12T03:39:33;25.10;71.40
27492;DHT22;14927;51.210;6.838;2023-08-12T03:42:17;25.10;71.40
27492;DHT22;14927;51.210;6.838;2023-08-12T03:45:02;25.10;71.50
27492;DHT22;14927;51.210;6.838;2023-08-12T03:47:47;25.10;71.60
27492;DHT22;14927;51.210;6.838;2023-08-12T03:50:36;25.10;71.70
27492;DHT22;14927;51.210;6.838;2023-08-12T03:53:21;25.10;71.90
27492;DHT22;14927;51.210;6.838;2023-08-12T03:56:05;25.10;71.70
27492;DHT22;14927;51.210;6.838;2023-08-12T03:58:51;25.10;71.80
27492;DHT22;14927;51.210;6.838;2023-08-12T04:01:38;25.00;72.50
27492;DHT22;14927;51.210;6.838;2023-08-12T04:04:22;25.00;71.90
27492;DHT22;14927;51.210;6.838;2023-08-12T04:07:07;25.00;71.80
27492;DHT22;14927;51.210;6.838;2023-08-12T04:09:52;25.00;71.80
27492;DHT22;14927;51.210;6.838;2023-08-12T04:12:37;25.00;71.80
27492;DHT22;14927;51.210;6.838;2023-08-12T04:15:21;25.00;71.80
27492;DHT22;14927;51.210;6.838;2023-08-12T04:18:06;25.00;71.80
27492;DHT22;14927;51.210;6.838;2023-08-12T04:20:52;25.00;71.70
27492;DHT22;14927;51.210;6.838;2023-08-12T04:23:37;25.00;71.60
27492;DHT22;14927;51.210;6.838;2023-08-12T04:26:21;25.00;71.80
27492;DHT22;14927;51.210;6.838;2023-08-12T04:29:06;25.00;71.90
27492;DHT22;14927;51.210;6.838;2023-08-12T04:31:51;25.00;71.90
27492;DHT22;14927;51.210;6.838;2023-08-12T04:34:37;24.90;71.90
27492;DHT22;14927;51.210;6.838;2023-08-12T04:37:22;24.90;71.90
27492;DHT22;14927;51.210;6.838;2023-08-12T04:40:08;25.00;72.00
27492;DHT22;14927;51.210;6.838;2023-08-12T04:42:54;24.90;72.00
27492;DHT22;14927;51.210;6.838;2023-08-12T04:45:38;24.90;72.10
27492;DHT22;14927;51.210;6.838;2023-08-12T04:48:23;24.90;72.30
27492;DHT22;14927;51.210;6.838;2023-08-12T04:51:07;24.90;72.40
27492;DHT22;14927;51.210;6.838;2023-08-12T04:53:52;24.90;72.40
27492;DHT22;14927;51.210;6.838;2023-08-12T04:56:37;24.90;72.40
27492;DHT22;14927;51.210;6.838;2023-08-12T04:59:21;24.90;72.50
27492;DHT22;14927;51.210;6.838;2023-08-12T05:02:06;24.90;72.50
27492;DHT22;14927;51.210;6.838;2023-08-12T05:04:51;24.80;72.40
27492;DHT22;14927;51.210;6.838;2023-08-12T05:07:36;24.80;72.50
27492;DHT22;14927;51.210;6.838;2023-08-12T05:10:20;24.90;72.60
27492;DHT22;14927;51.210;6.838;2023-08-12T05:13:05;24.80;72.50
27492;DHT22;14927;51.210;6.838;2023-08-12T05:15:50;24.90;72.60
27492;DHT22;14927;51.210;6.838;2023-08-12T05:18:35;24.90;72.60
27492;DHT22;14927;51.210;6.838;2023-08-12T05:21:20;24.90;72.50
27492;DHT22;14927;51.210;6.838;2023-08-12T05:24:04;24.80;72.40
27492;DHT22;14927;51.210;6.838;2023-08-12T05:26:50;24.80;72.40
27492;DHT22;14927;51.210;6.838;2023-08-12T05:29:35;24.80;72.40
27492;DHT22;14927;51.210;6.838;2023-08-12T05:32:19;24.80;72.40
27492;DHT22;14927;51.210;6.838;2023-08-12T05:35:04;24.80;72.40
27492;DHT22;14927;51.210;6.838;2023-08-12T05:37:49;24.80;72.50
27492;DHT22;14927;51.210;6.838;2023-08-12T05:40:34;24.90;72.50
27492;DHT22;14927;51.210;6.838;2023-08-12T05:43:19;24.80;72.50
27492;DHT22;14927;51.210;6.838;2023-08-12T05:46:04;24.80;72.50
27492;DHT22;14927;51.210;6.838;2023-08-12T05:48:48;24.80;72.60
27492;DHT22;14927;51.210;6.838;2023-08-12T05:51:33;24.80;72.50
27492;DHT22;14927;51.210;6.838;2023-08-12T05:54:18;24.80;72.70
27492;DHT22;14927;51.210;6.838;2023-08-12T05:57:02;24.80;72.70
27492;DHT22;14927;51.210;6.838;2023-08-12T05:59:47;24.80;72.60
27492;DHT22;14927;51.210;6.838;2023-08-12T06:02:32;24.80;72.60
27492;DHT22;14927;51.210;6.838;2023-08-12T06:05:16;24.80;72.60
27492;DHT22;14927;51.210;6.838;2023-08-12T06:08:01;24.80;72.60
27492;DHT22;14927;51.210;6.838;2023-08-12T06:10:46;24.80;72.50
27492;DHT22;14927;51.210;6.838;2023-08-12T06:13:30;24.80;72.60
27492;DHT22;14927;51.210;6.838;2023-08-12T06:16:15;24.80;72.80
27492;DHT22;14927;51.210;6.838;2023-08-12T06:19:00;24.80;73.00
27492;DHT22;14927;51.210;6.838;2023-08-12T06:21:44;24.70;73.00
27492;DHT22;14927;51.210;6.838;2023-08-12T06:24:29;24.70;73.00
27492;DHT22;14927;51.210;6.838;2023-08-12T06:27:13;24.70;73.10
27492;DHT22;14927;51.210;6.838;2023-08-12T06:29:58;24.70;73.20
27492;DHT22;14927;51.210;6.838;2023-08-12T06:32:43;24.70;73.30
27492;DHT22;14927;51.210;6.838;2023-08-12T06:35:27;24.70;73.50
27492;DHT22;14927;51.210;6.838;2023-08-12T06:38:12;24.60;73.50
27492;DHT22;14927;51.210;6.838;2023-08-12T06:40:57;24.60;73.40
27492;DHT22;14927;51.210;6.838;2023-08-12T06:43:42;24.60;73.50
27492;DHT22;14927;51.210;6.838;2023-08-12T06:46:27;24.60;73.70
27492;DHT22;14927;51.210;6.838;2023-08-12T06:49:12;24.60;73.90
27492;DHT22;14927;51.210;6.838;2023-08-12T06:51:57;24.60;73.90
27492;DHT22;14927;51.210;6.838;2023-08-12T06:54:42;24.60;73.90
27492;DHT22;14927;51.210;6.838;2023-08-12T06:57:26;24.60;73.80
27492;DHT22;14927;51.210;6.838;2023-08-12T07:00:11;24.50;73.80
27492;DHT22;14927;51.210;6.838;2023-08-12T07:02:56;24.50;74.00
27492;DHT22;14927;51.210;6.838;2023-08-12T07:05:41;24.50;74.30
27492;DHT22;14927;51.210;6.838;2023-08-12T07:08:25;24.50;74.50
27492;DHT22;14927;51.210;6.838;2023-08-12T07:11:11;24.50;74.60
27492;DHT22;14927;51.210;6.838;2023-08-12T07:13:55;24.50;74.50
27492;DHT22;14927;51.210;6.838;2023-08-12T07:16:40;24.50;74.50
27492;DHT22;14927;51.210;6.838;2023-08-12T07:19:25;24.50;74.50
27492;DHT22;14927;51.210;6.838;2023-08-12T07:22:09;24.50;74.50
27492;DHT22;14927;51.210;6.838;2023-08-12T07:24:54;24.50;74.60
27492;DHT22;14927;51.210;6.838;2023-08-12T07:27:39;24.50;74.80
27492;DHT22;14927;51.210;6.838;2023-08-12T07:30:24;24.50;74.90
27492;DHT22;14927;51.210;6.838;2023-08-12T07:33:08;24.60;74.90
27492;DHT22;14927;51.210;6.838;2023-08-12T07:35:53;24.60;74.80
27492;DHT22;14927;51.210;6.838;2023-08-12T07:38:38;24.60;74.80
27492;DHT22;14927;51.210;6.838;2023-08-12T07:41:22;24.60;74.80
27492;DHT22;14927;51.210;6.838;2023-08-12T07:44:07;24.60;74.70
27492;DHT22;14927;51.210;6.838;2023-08-12T07:46:52;24.60;74.70
27492;DHT22;14927;51.210;6.838;2023-08-12T07:49:38;24.70;74.70
27492;DHT22;14927;51.210;6.838;2023-08-12T07:52:22;24.70;74.70
27492;DHT22;14927;51.210;6.838;2023-08-12T07:55:07;24.70;74.40
27492;DHT22;14927;51.210;6.838;2023-08-12T07:57:54;24.80;74.40
27492;DHT22;14927;51.210;6.838;2023-08-12T08:00:39;24.80;74.30
27492;DHT22;14927;51.210;6.838;2023-08-12T08:03:23;24.80;74.30
27492;DHT22;14927;51.210;6.838;2023-08-12T08:06:08;24.80;74.40
27492;DHT22;14927;51.210;6.838;2023-08-12T08:08:53;24.80;74.30
27492;DHT22;14927;51.210;6.838;2023-08-12T08:11:38;24.80;74.20
27492;DHT22;14927;51.210;6.838;2023-08-12T08:14:22;24.80;74.10
27492;DHT22;14927;51.210;6.838;2023-08-12T08:17:07;24.80;74.20
27492;DHT22;14927;51.210;6.838;2023-08-12T08:19:51;24.80;74.00
27492;DHT22;14927;51.210;6.838;2023-08-12T08:22:36;24.80;73.80
27492;DHT22;14927;51.210;6.838;2023-08-12T08:25:21;24.90;74.00
27492;DHT22;14927;51.210;6.838;2023-08-12T08:28:06;24.90;74.30
27492;DHT22;14927;51.210;6.838;2023-08-12T08:30:50;24.90;74.50
27492;DHT22;14927;51.210;6.838;2023-08-12T08:33:35;24.90;74.60
27492;DHT22;14927;51.210;6.838;2023-08-12T08:36:20;25.00;74.40
27492;DHT22;14927;51.210;6.838;2023-08-12T08:39:04;25.00;74.00
27492;DHT22;14927;51.210;6.838;2023-08-12T08:41:50;25.00;74.00
27492;DHT22;14927;51.210;6.838;2023-08-12T08:44:35;25.00;74.00
27492;DHT22;14927;51.210;6.838;2023-08-12T08:47:25;25.10;73.90
27492;DHT22;14927;51.210;6.838;2023-08-12T08:50:11;25.00;73.40
27492;DHT22;14927;51.210;6.838;2023-08-12T08:52:57;25.10;73.20
27492;DHT22;14927;51.210;6.838;2023-08-12T08:55:41;25.10;72.50
27492;DHT22;14927;51.210;6.838;2023-08-12T08:58:27;25.20;72.20
27492;DHT22;14927;51.210;6.838;2023-08-12T09:01:12;25.10;72.00
27492;DHT22;14927;51.210;6.838;2023-08-12T09:03:58;25.10;72.00
27492;DHT22;14927;51.210;6.838;2023-08-12T09:06:44;25.20;72.20
27492;DHT22;14927;51.210;6.838;2023-08-12T09:09:29;25.10;72.20
27492;DHT22;14927;51.210;6.838;2023-08-12T09:12:16;25.10;72.40
27492;DHT22;14927;51.210;6.838;2023-08-12T09:15:00;25.20;73.30
27492;DHT22;14927;51.210;6.838;2023-08-12T09:17:45;25.20;72.50
27492;DHT22;14927;51.210;6.838;2023-08-12T09:20:29;25.20;72.80
27492;DHT22;14927;51.210;6.838;2023-08-12T09:23:15;25.20;73.00
27492;DHT22;14927;51.210;6.838;2023-08-12T09:26:01;25.20;73.10
27492;DHT22;14927;51.210;6.838;2023-08-12T09:28:46;25.30;73.00
27492;DHT22;14927;51.210;6.838;2023-08-12T09:31:32;25.30;72.80
27492;DHT22;14927;51.210;6.838;2023-08-12T09:34:17;25.30;72.60
27492;DHT22;14927;51.210;6.838;2023-08-12T09:37:02;25.30;72.80
27492;DHT22;14927;51.210;6.838;2023-08-12T09:39:48;25.40;72.60
27492;DHT22;14927;51.210;6.838;2023-08-12T09:42:33;25.40;72.50
27492;DHT22;14927;51.210;6.838;2023-08-12T09:45:17;25.40;72.50
27492;DHT22;14927;51.210;6.838;2023-08-12T09:48:05;25.40;72.60
27492;DHT22;14927;51.210;6.838;2023-08-12T09:50:52;25.40;72.60
27492;DHT22;14927;51.210;6.838;2023-08-12T09:53:38;25.50;72.50
27492;DHT22;14927;51.210;6.838;2023-08-12T09:56:23;25.50;72.60
27492;DHT22;14927;51.210;6.838;2023-08-12T09:59:09;25.50;72.70
27492;DHT22;14927;51.210;6.838;2023-08-12T10:01:56;25.50;72.30
27492;DHT22;14927;51.210;6.838;2023-08-12T10:04:43;25.70;72.10
27492;DHT22;14927;51.210;6.838;2023-08-12T10:07:29;25.60;71.90
27492;DHT22;14927;51.210;6.838;2023-08-12T10:10:14;25.60;71.80
27492;DHT22;14927;51.210;6.838;2023-08-12T10:12:59;25.60;71.80
27492;DHT22;14927;51.210;6.838;2023-08-12T10:15:45;25.70;71.90
27492;DHT22;14927;51.210;6.838;2023-08-12T10:18:31;25.70;71.60
27492;DHT22;14927;51.210;6.838;2023-08-12T10:21:16;25.80;71.40
27492;DHT22;14927;51.210;6.838;2023-08-12T10:24:02;25.80;71.00
27492;DHT22;14927;51.210;6.838;2023-08-12T10:26:50;25.80;70.70
27492;DHT22;14927;51.210;6.838;2023-08-12T10:29:36;25.90;70.40
27492;DHT22;14927;51.210;6.838;2023-08-12T10:32:21;25.70;70.00
27492;DHT22;14927;51.210;6.838;2023-08-12T10:35:06;25.90;70.00
27492;DHT22;14927;51.210;6.838;2023-08-12T10:37:55;25.90;70.00
27492;DHT22;14927;51.210;6.838;2023-08-12T10:40:40;25.90;70.00
27492;DHT22;14927;51.210;6.838;2023-08-12T10:43:26;25.90;70.10
27492;DHT22;14927;51.210;6.838;2023-08-12T10:46:22;26.00;70.10
27492;DHT22;14927;51.210;6.838;2023-08-12T10:49:11;26.00;69.60
27492;DHT22;14927;51.210;6.838;2023-08-12T10:51:55;26.00;69.20
27492;DHT22;14927;51.210;6.838;2023-08-12T10:54:40;26.00;68.90
27492;DHT22;14927;51.210;6.838;2023-08-12T10:57:37;26.10;68.70
27492;DHT22;14927;51.210;6.838;2023-08-12T11:00:26;26.10;69.00
27492;DHT22;14927;51.210;6.838;2023-08-12T11:03:12;26.10;70.20
27492;DHT22;14927;51.210;6.838;2023-08-12T11:05:59;26.10;70.10
27492;DHT22;14927;51.210;6.838;2023-08-12T11:08:51;26.10;71.20
27492;DHT22;14927;51.210;6.838;2023-08-12T11:11:36;26.10;71.60
27492;DHT22;14927;51.210;6.838;2023-08-12T11:14:23;26.10;72.20
27492;DHT22;14927;51.210;6.838;2023-08-12T11:17:14;26.00;72.60
27492;DHT22;14927;51.210;6.838;2023-08-12T11:19:59;26.00;72.90
27492;DHT22;14927;51.210;6.838;2023-08-12T11:22:44;26.00;72.90
27492;DHT22;14927;51.210;6.838;2023-08-12T11:25:30;26.00;72.70
27492;DHT22;14927;51.210;6.838;2023-08-12T11:28:18;26.00;72.80
27492;DHT22;14927;51.210;6.838;2023-08-12T11:31:05;26.00;72.60
27492;DHT22;14927;51.210;6.838;2023-08-12T11:33:50;26.00;72.70
27492;DHT22;14927;51.210;6.838;2023-08-12T11:36:39;26.00;73.10
27492;DHT22;14927;51.210;6.838;2023-08-12T11:39:24;26.00;72.90
27492;DHT22;14927;51.210;6.838;2023-08-12T11:42:09;26.10;72.90
27492;DHT22;14927;51.210;6.838;2023-08-12T11:44:54;26.10;73.10
27492;DHT22;14927;51.210;6.838;2023-08-12T11:47:39;26.20;73.10
27492;DHT22;14927;51.210;6.838;2023-08-12T11:50:26;26.20;73.10
27492;DHT22;14927;51.210;6.838;2023-08-12T11:53:11;26.30;72.60
27492;DHT22;14927;51.210;6.838;2023-08-12T11:55:56;26.30;72.20
27492;DHT22;14927;51.210;6.838;2023-08-12T11:58:41;26.40;72.00
27492;DHT22;14927;51.210;6.838;2023-08-12T12:01:25;26.50;71.90
27492;DHT22;14927;51.210;6.838;2023-08-12T12:04:12;26.60;72.10
27492;DHT22;14927;51.210;6.838;2023-08-12T12:06:56;26.60;72.00
27492;DHT22;14927;51.210;6.838;2023-08-12T12:09:43;26.70;71.20
27492;DHT22;14927;51.210;6.838;2023-08-12T12:12:28;26.70;70.40
27492;DHT22;14927;51.210;6.838;2023-08-12T12:15:13;26.80;70.70
27492;DHT22;14927;51.210;6.838;2023-08-12T12:18:01;26.90;69.60
27492;DHT22;14927;51.210;6.838;2023-08-12T12:21:05;26.90;69.40
27492;DHT22;14927;51.210;6.838;2023-08-12T12:23:52;27.00;68.70
27492;DHT22;14927;51.210;6.838;2023-08-12T12:26:37;27.00;68.20
27492;DHT22;14927;51.210;6.838;2023-08-12T12:29:22;27.00;68.00
27492;DHT22;14927;51.210;6.838;2023-08-12T12:32:07;27.00;68.30
27492;DHT22;14927;51.210;6.838;2023-08-12T12:34:52;27.10;68.60
27492;DHT22;14927;51.210;6.838;2023-08-12T12:37:38;27.10;67.90
27492;DHT22;14927;51.210;6.838;2023-08-12T12:40:22;27.10;67.50
27492;DHT22;14927;51.210;6.838;2023-08-12T12:43:07;27.10;66.70
27492;DHT22;14927;51.210;6.838;2023-08-12T12:45:52;27.10;66.40
27492;DHT22;14927;51.210;6.838;2023-08-12T12:48:36;27.10;65.90
27492;DHT22;14927;51.210;6.838;2023-08-12T12:51:21;27.10;65.60
27492;DHT22;14927;51.210;6.838;2023-08-12T12:54:06;27.00;65.80
27492;DHT22;14927;51.210;6.838;2023-08-12T12:56:50;26.90;66.10
27492;DHT22;14927;51.210;6.838;2023-08-12T12:59:35;26.90;66.10
27492;DHT22;14927;51.210;6.838;2023-08-12T13:02:20;26.80;66.30
27492;DHT22;14927;51.210;6.838;2023-08-12T13:05:04;26.70;66.60
27492;DHT22;14927;51.210;6.838;2023-08-12T13:07:49;26.60;67.40
27492;DHT22;14927;51.210;6.838;2023-08-12T13:10:36;26.60;67.50
27492;DHT22;14927;51.210;6.838;2023-08-12T13:13:21;26.50;67.70
27492;DHT22;14927;51.210;6.838;2023-08-12T13:16:06;26.40;67.90
27492;DHT22;14927;51.210;6.838;2023-08-12T13:18:52;26.40;68.10
27492;DHT22;14927;51.210;6.838;2023-08-12T13:21:37;26.30;68.40
27492;DHT22;14927;51.210;6.838;2023-08-12T13:24:21;26.30;68.80
27492;DHT22;14927;51.210;6.838;2023-08-12T13:27:06;26.20;69.00
27492;DHT22;14927;51.210;6.838;2023-08-12T13:29:52;26.20;69.50
27492;DHT22;14927;51.210;6.838;2023-08-12T13:32:37;26.20;70.10
27492;DHT22;14927;51.210;6.838;2023-08-12T13:35:23;26.20;69.90
27492;DHT22;14927;51.210;6.838;2023-08-12T13:38:08;26.20;69.90
27492;DHT22;14927;51.210;6.838;2023-08-12T13:40:52;26.20;69.90
27492;DHT22;14927;51.210;6.838;2023-08-12T13:43:37;26.20;70.10
27492;DHT22;14927;51.210;6.838;2023-08-12T13:46:22;26.20;70.60
27492;DHT22;14927;51.210;6.838;2023-08-12T13:49:06;26.20;70.60
27492;DHT22;14927;51.210;6.838;2023-08-12T13:51:51;26.20;70.60
27492;DHT22;14927;51.210;6.838;2023-08-12T13:54:36;26.20;70.70
27492;DHT22;14927;51.210;6.838;2023-08-12T13:57:20;26.20;70.80
27492;DHT22;14927;51.210;6.838;2023-08-12T14:00:07;26.20;70.80
27492;DHT22;14927;51.210;6.838;2023-08-12T14:02:53;26.20;71.40
27492;DHT22;14927;51.210;6.838;2023-08-12T14:05:38;26.20;71.20
27492;DHT22;14927;51.210;6.838;2023-08-12T14:08:22;26.30;71.20
27492;DHT22;14927;51.210;6.838;2023-08-12T14:11:07;26.30;71.30
27492;DHT22;14927;51.210;6.838;2023-08-12T14:13:52;26.30;71.50
27492;DHT22;14927;51.210;6.838;2023-08-12T14:16:36;26.40;71.80
27492;DHT22;14927;51.210;6.838;2023-08-12T14:19:21;26.50;71.30
27492;DHT22;14927;51.210;6.838;2023-08-12T14:22:07;26.60;71.70
27492;DHT22;14927;51.210;6.838;2023-08-12T14:24:53;26.70;70.20
27492;DHT22;14927;51.210;6.838;2023-08-12T14:27:37;26.80;69.20
27492;DHT22;14927;51.210;6.838;2023-08-12T14:30:25;27.00;68.50
27492;DHT22;14927;51.210;6.838;2023-08-12T14:33:10;27.10;67.80
27492;DHT22;14927;51.210;6.838;2023-08-12T14:35:58;27.20;67.70
27492;DHT22;14927;51.210;6.838;2023-08-12T14:38:43;27.20;67.00
27492;DHT22;14927;51.210;6.838;2023-08-12T14:41:28;27.30;66.60
27492;DHT22;14927;51.210;6.838;2023-08-12T14:44:13;27.30;65.80
27492;DHT22;14927;51.210;6.838;2023-08-12T14:46:58;27.30;66.30
27492;DHT22;14927;51.210;6.838;2023-08-12T14:49:43;27.40;64.50
27492;DHT22;14927;51.210;6.838;2023-08-12T14:52:27;27.40;63.60
27492;DHT22;14927;51.210;6.838;2023-08-12T14:55:12;27.40;63.20
27492;DHT22;14927;51.210;6.838;2023-08-12T14:57:57;27.50;62.80
27492;DHT22;14927;51.210;6.838;2023-08-12T15:00:41;27.50;62.30
27492;DHT22;14927;51.210;6.838;2023-08-12T15:03:26;27.50;62.10
27492;DHT22;14927;51.210;6.838;2023-08-12T15:06:11;27.50;61.90
27492;DHT22;14927;51.210;6.838;2023-08-12T15:08:55;27.50;62.10
27492;DHT22;14927;51.210;6.838;2023-08-12T15:11:40;27.50;62.60
27492;DHT22;14927;51.210;6.838;2023-08-12T15:14:25;27.60;63.00
27492;DHT22;14927;51.210;6.838;2023-08-12T15:17:09;27.50;63.10
27492;DHT22;14927;51.210;6.838;2023-08-12T15:19:54;27.60;61.70
27492;DHT22;14927;51.210;6.838;2023-08-12T15:22:39;27.60;60.30
27492;DHT22;14927;51.210;6.838;2023-08-12T15:25:23;27.60;59.70
27492;DHT22;14927;51.210;6.838;2023-08-12T15:28:08;27.60;59.60
27492;DHT22;14927;51.210;6.838;2023-08-12T15:30:52;27.60;59.10
27492;DHT22;14927;51.210;6.838;2023-08-12T15:33:37;27.70;58.20
27492;DHT22;14927;51.210;6.838;2023-08-12T15:36:21;27.60;57.40
27492;DHT22;14927;51.210;6.838;2023-08-12T15:39:06;27.60;57.40
27492;DHT22;14927;51.210;6.838;2023-08-12T15:41:51;27.70;57.70
27492;DHT22;14927;51.210;6.838;2023-08-12T15:44:36;27.70;57.20
27492;DHT22;14927;51.210;6.838;2023-08-12T15:47:21;27.60;56.70
27492;DHT22;14927;51.210;6.838;2023-08-12T15:50:07;27.60;56.40
27492;DHT22;14927;51.210;6.838;2023-08-12T15:52:52;27.70;55.30
27492;DHT22;14927;51.210;6.838;2023-08-12T15:55:37;27.70;55.00
27492;DHT22;14927;51.210;6.838;2023-08-12T15:58:21;27.60;54.50
27492;DHT22;14927;51.210;6.838;2023-08-12T16:01:06;27.60;54.30
27492;DHT22;14927;51.210;6.838;2023-08-12T16:03:50;27.60;54.10
27492;DHT22;14927;51.210;6.838;2023-08-12T16:06:36;27.60;53.70
27492;DHT22;14927;51.210;6.838;2023-08-12T16:09:21;27.60;53.50
27492;DHT22;14927;51.210;6.838;2023-08-12T16:12:06;27.50;53.10
27492;DHT22;14927;51.210;6.838;2023-08-12T16:14:51;27.60;53.40
27492;DHT22;14927;51.210;6.838;2023-08-12T16:17:35;27.50;53.00
27492;DHT22;14927;51.210;6.838;2023-08-12T16:20:20;27.50;53.10
27492;DHT22;14927;51.210;6.838;2023-08-12T16:23:06;27.50;52.80
27492;DHT22;14927;51.210;6.838;2023-08-12T16:25:51;27.50;52.30
27492;DHT22;14927;51.210;6.838;2023-08-12T16:28:36;27.50;52.10
27492;DHT22;14927;51.210;6.838;2023-08-12T16:31:20;27.50;51.80
27492;DHT22;14927;51.210;6.838;2023-08-12T16:34:05;27.50;51.70
27492;DHT22;14927;51.210;6.838;2023-08-12T16:36:50;27.40;52.30
27492;DHT22;14927;51.210;6.838;2023-08-12T16:39:44;27.50;52.00
27492;DHT22;14927;51.210;6.838;2023-08-12T16:42:28;27.40;51.40
27492;DHT22;14927;51.210;6.838;2023-08-12T16:45:13;27.40;51.50
27492;DHT22;14927;51.210;6.838;2023-08-12T16:47:58;27.50;50.90
27492;DHT22;14927;51.210;6.838;2023-08-12T16:50:43;27.50;50.50
27492;DHT22;14927;51.210;6.838;2023-08-12T16:53:30;27.40;50.70
27492;DHT22;14927;51.210;6.838;2023-08-12T16:56:14;27.40;49.80
27492;DHT22;14927;51.210;6.838;2023-08-12T16:58:59;27.40;50.10
27492;DHT22;14927;51.210;6.838;2023-08-12T17:01:43;27.40;50.20
27492;DHT22;14927;51.210;6.838;2023-08-12T17:04:30;27.40;49.90
27492;DHT22;14927;51.210;6.838;2023-08-12T17:07:14;27.40;49.80
27492;DHT22;14927;51.210;6.838;2023-08-12T17:09:59;27.30;49.80
27492;DHT22;14927;51.210;6.838;2023-08-12T17:12:44;27.30;50.00
27492;DHT22;14927;51.210;6.838;2023-08-12T17:15:28;27.30;50.10
27492;DHT22;14927;51.210;6.838;2023-08-12T17:18:14;27.30;50.00
27492;DHT22;14927;51.210;6.838;2023-08-12T17:20:58;27.20;49.80
27492;DHT22;14927;51.210;6.838;2023-08-12T17:23:45;27.20;49.80
27492;DHT22;14927;51.210;6.838;2023-08-12T17:26:29;27.20;49.60